sensor_id;sensor_type;location;lat;lon;timestamp;temperature;humidity
72206;DHT22;60111;48.286;7.812;2023-05-15T00:01:34;12.70;74.80
72206;DHT22;60111;48.286;7.812;2023-05-15T00:04:08;12.70;75.00
72206;DHT22;60111;48.286;7.812;2023-05-15T00:06:40;12.70;74.90
72206;DHT22;60111;48.286;7.812;2023-05-15T00:09:13;12.70;74.80
72206;DHT22;60111;48.286;7.812;2023-05-15T00:11:45;12.60;74.90
72206;DHT22;60111;48.286;7.812;2023-05-15T00:14:18;12.60;74.80
72206;DHT22;60111;48.286;7.812;2023-05-15T00:16:50;12.70;75.00
72206;DHT22;60111;48.286;7.812;2023-05-15T00:19:23;12.60;75.30
72206;DHT22;60111;48.286;7.812;2023-05-15T00:21:55;12.50;75.40
72206;DHT22;60111;48.286;7.812;2023-05-15T00:24:28;12.40;75.50
72206;DHT22;60111;48.286;7.812;2023-05-15T00:27:01;12.50;75.20
72206;DHT22;60111;48.286;7.812;2023-05-15T00:29:33;12.50;75.10
72206;DHT22;60111;48.286;7.812;2023-05-15T00:32:06;12.40;75.60
72206;DHT22;60111;48.286;7.812;2023-05-15T00:34:39;12.40;75.50
72206;DHT22;60111;48.286;7.812;2023-05-15T00:37:11;12.30;76.20
72206;DHT22;60111;48.286;7.812;2023-05-15T00:39:44;12.20;76.50
72206;DHT22;60111;48.286;7.812;2023-05-15T00:42:17;12.20;76.70
72206;DHT22;60111;48.286;7.812;2023-05-15T00:44:51;12.00;77.00
72206;DHT22;60111;48.286;7.812;2023-05-15T00:47:26;12.00;77.30
72206;DHT22;60111;48.286;7.812;2023-05-15T00:49:59;11.90;77.60
72206;DHT22;60111;48.286;7.812;2023-05-15T00:52:32;11.80;77.80
72206;DHT22;60111;48.286;7.812;2023-05-15T00:55:06;11.80;78.20
72206;DHT22;60111;48.286;7.812;2023-05-15T00:57:39;11.90;78.10
72206;DHT22;60111;48.286;7.812;2023-05-15T01:00:13;11.90;78.20
72206;DHT22;60111;48.286;7.812;2023-05-15T01:02:48;11.90;77.90
72206;DHT22;60111;48.286;7.812;2023-05-15T01:05:20;11.90;78.00
72206;DHT22;60111;48.286;7.812;2023-05-15T01:08:03;11.90;78.10
72206;DHT22;60111;48.286;7.812;2023-05-15T01:10:34;11.80;78.00
72206;DHT22;60111;48.286;7.812;2023-05-15T01:13:08;11.90;77.90
72206;DHT22;60111;48.286;7.812;2023-05-15T01:15:42;11.90;77.70
72206;DHT22;60111;48.286;7.812;2023-05-15T01:18:15;12.00;77.20
72206;DHT22;60111;48.286;7.812;2023-05-15T01:27:08;11.70;78.10
72206;DHT22;60111;48.286;7.812;2023-05-15T01:33:05;11.60;78.80
72206;DHT22;60111;48.286;7.812;2023-05-15T01:35:56;11.50;78.70
72206;DHT22;60111;48.286;7.812;2023-05-15T01:38:37;11.60;78.40
72206;DHT22;60111;48.286;7.812;2023-05-15T01:41:15;11.70;78.00
72206;DHT22;60111;48.286;7.812;2023-05-15T01:43:51;11.60;78.30
72206;DHT22;60111;48.286;7.812;2023-05-15T01:46:26;11.60;78.20
72206;DHT22;60111;48.286;7.812;2023-05-15T01:49:02;11.50;78.40
72206;DHT22;60111;48.286;7.812;2023-05-15T01:51:36;11.50;78.60
72206;DHT22;60111;48.286;7.812;2023-05-15T01:54:11;11.60;78.00
72206;DHT22;60111;48.286;7.812;2023-05-15T01:56:44;11.60;78.10
72206;DHT22;60111;48.286;7.812;2023-05-15T01:59:18;11.60;78.00
72206;DHT22;60111;48.286;7.812;2023-05-15T02:01:52;11.50;78.10
72206;DHT22;60111;48.286;7.812;2023-05-15T02:04:25;11.50;78.20
72206;DHT22;60111;48.286;7.812;2023-05-15T02:07:00;11.40;78.60
72206;DHT22;60111;48.286;7.812;2023-05-15T02:09:32;11.40;78.60
72206;DHT22;60111;48.286;7.812;2023-05-15T02:12:06;11.20;79.10
72206;DHT22;60111;48.286;7.812;2023-05-15T02:14:40;11.20;79.70
72206;DHT22;60111;48.286;7.812;2023-05-15T02:17:14;11.10;79.80
72206;DHT22;60111;48.286;7.812;2023-05-15T02:19:47;11.10;80.20
72206;DHT22;60111;48.286;7.812;2023-05-15T02:22:19;11.10;80.20
72206;DHT22;60111;48.286;7.812;2023-05-15T02:24:52;11.10;80.20
72206;DHT22;60111;48.286;7.812;2023-05-15T02:27:27;11.10;79.80
72206;DHT22;60111;48.286;7.812;2023-05-15T02:35:47;11.00;80.40
72206;DHT22;60111;48.286;7.812;2023-05-15T02:38:32;11.00;80.60
72206;DHT22;60111;48.286;7.812;2023-05-15T02:40:58;11.00;80.70
72206;DHT22;60111;48.286;7.812;2023-05-15T02:43:32;11.00;80.60
72206;DHT22;60111;48.286;7.812;2023-05-15T02:46:06;11.00;80.30
72206;DHT22;60111;48.286;7.812;2023-05-15T02:48:44;11.00;80.10
72206;DHT22;60111;48.286;7.812;2023-05-15T02:51:13;11.00;80.40
72206;DHT22;60111;48.286;7.812;2023-05-15T02:53:46;10.90;80.50
72206;DHT22;60111;48.286;7.812;2023-05-15T02:56:19;11.00;80.60
72206;DHT22;60111;48.286;7.812;2023-05-15T02:58:52;11.00;80.40
72206;DHT22;60111;48.286;7.812;2023-05-15T03:01:24;11.00;79.80
72206;DHT22;60111;48.286;7.812;2023-05-15T03:03:57;11.10;79.90
72206;DHT22;60111;48.286;7.812;2023-05-15T03:06:29;11.00;79.90
72206;DHT22;60111;48.286;7.812;2023-05-15T03:09:02;11.10;79.70
72206;DHT22;60111;48.286;7.812;2023-05-15T03:11:34;11.20;79.70
72206;DHT22;60111;48.286;7.812;2023-05-15T03:14:08;11.20;79.70
72206;DHT22;60111;48.286;7.812;2023-05-15T03:16:41;11.10;79.90
72206;DHT22;60111;48.286;7.812;2023-05-15T03:19:13;11.10;80.20
72206;DHT22;60111;48.286;7.812;2023-05-15T03:21:46;11.00;80.50
72206;DHT22;60111;48.286;7.812;2023-05-15T03:24:18;11.00;80.70
72206;DHT22;60111;48.286;7.812;2023-05-15T03:26:51;11.00;80.80
72206;DHT22;60111;48.286;7.812;2023-05-15T03:29:24;10.90;81.00
72206;DHT22;60111;48.286;7.812;2023-05-15T03:31:57;10.80;81.50
72206;DHT22;60111;48.286;7.812;2023-05-15T03:34:31;10.90;81.50
72206;DHT22;60111;48.286;7.812;2023-05-15T03:37:03;11.00;81.20
72206;DHT22;60111;48.286;7.812;2023-05-15T03:39:36;11.00;81.00
72206;DHT22;60111;48.286;7.812;2023-05-15T03:42:08;11.00;80.90
72206;DHT22;60111;48.286;7.812;2023-05-15T03:44:41;11.00;81.10
72206;DHT22;60111;48.286;7.812;2023-05-15T03:47:13;11.00;81.10
72206;DHT22;60111;48.286;7.812;2023-05-15T03:49:46;11.00;81.00
72206;DHT22;60111;48.286;7.812;2023-05-15T03:52:19;11.10;80.90
72206;DHT22;60111;48.286;7.812;2023-05-15T03:54:52;11.20;80.80
72206;DHT22;60111;48.286;7.812;2023-05-15T03:57:24;11.10;80.70
72206;DHT22;60111;48.286;7.812;2023-05-15T03:59:57;11.00;81.30
72206;DHT22;60111;48.286;7.812;2023-05-15T04:02:30;11.00;81.50
72206;DHT22;60111;48.286;7.812;2023-05-15T04:05:04;11.00;81.60
72206;DHT22;60111;48.286;7.812;2023-05-15T04:07:37;11.00;81.30
72206;DHT22;60111;48.286;7.812;2023-05-15T04:10:10;11.10;81.50
72206;DHT22;60111;48.286;7.812;2023-05-15T04:12:42;11.10;81.40
72206;DHT22;60111;48.286;7.812;2023-05-15T04:15:23;11.20;80.90
72206;DHT22;60111;48.286;7.812;2023-05-15T04:17:56;11.30;80.80
72206;DHT22;60111;48.286;7.812;2023-05-15T04:20:29;11.30;80.70
72206;DHT22;60111;48.286;7.812;2023-05-15T04:23:01;11.30;80.60
72206;DHT22;60111;48.286;7.812;2023-05-15T04:25:36;11.40;80.50
72206;DHT22;60111;48.286;7.812;2023-05-15T04:28:08;11.50;80.50
72206;DHT22;60111;48.286;7.812;2023-05-15T04:30:41;11.50;80.20
72206;DHT22;60111;48.286;7.812;2023-05-15T04:33:14;11.60;80.30
72206;DHT22;60111;48.286;7.812;2023-05-15T04:35:46;11.80;79.80
72206;DHT22;60111;48.286;7.812;2023-05-15T04:38:19;11.90;79.50
72206;DHT22;60111;48.286;7.812;2023-05-15T04:40:52;11.80;79.50
72206;DHT22;60111;48.286;7.812;2023-05-15T04:43:24;11.80;79.70
72206;DHT22;60111;48.286;7.812;2023-05-15T04:45:57;11.80;79.60
72206;DHT22;60111;48.286;7.812;2023-05-15T04:48:29;11.90;79.40
72206;DHT22;60111;48.286;7.812;2023-05-15T04:51:02;11.80;79.90
72206;DHT22;60111;48.286;7.812;2023-05-15T04:53:34;11.80;80.10
72206;DHT22;60111;48.286;7.812;2023-05-15T04:56:07;11.90;79.80
72206;DHT22;60111;48.286;7.812;2023-05-15T04:58:40;11.90;80.10
72206;DHT22;60111;48.286;7.812;2023-05-15T05:01:12;11.90;80.20
72206;DHT22;60111;48.286;7.812;2023-05-15T05:03:45;12.00;80.30
72206;DHT22;60111;48.286;7.812;2023-05-15T05:06:17;12.00;80.30
72206;DHT22;60111;48.286;7.812;2023-05-15T05:08:50;12.10;79.40
72206;DHT22;60111;48.286;7.812;2023-05-15T05:11:22;12.20;78.80
72206;DHT22;60111;48.286;7.812;2023-05-15T05:13:55;12.20;78.90
72206;DHT22;60111;48.286;7.812;2023-05-15T05:16:28;12.30;78.60
72206;DHT22;60111;48.286;7.812;2023-05-15T05:19:00;12.20;78.80
72206;DHT22;60111;48.286;7.812;2023-05-15T05:21:33;12.20;79.00
72206;DHT22;60111;48.286;7.812;2023-05-15T05:24:05;12.30;78.80
72206;DHT22;60111;48.286;7.812;2023-05-15T05:26:41;12.30;78.50
72206;DHT22;60111;48.286;7.812;2023-05-15T05:29:13;12.30;78.70
72206;DHT22;60111;48.286;7.812;2023-05-15T05:31:46;12.40;78.80
72206;DHT22;60111;48.286;7.812;2023-05-15T05:34:19;12.50;79.30
72206;DHT22;60111;48.286;7.812;2023-05-15T05:36:52;12.50;79.60
72206;DHT22;60111;48.286;7.812;2023-05-15T05:39:24;12.50;78.90
72206;DHT22;60111;48.286;7.812;2023-05-15T05:41:57;12.50;79.00
72206;DHT22;60111;48.286;7.812;2023-05-15T05:44:29;12.60;78.90
72206;DHT22;60111;48.286;7.812;2023-05-15T05:47:02;12.60;78.60
72206;DHT22;60111;48.286;7.812;2023-05-15T05:49:34;12.70;78.50
72206;DHT22;60111;48.286;7.812;2023-05-15T05:52:07;12.60;78.60
72206;DHT22;60111;48.286;7.812;2023-05-15T05:54:40;12.60;78.40
72206;DHT22;60111;48.286;7.812;2023-05-15T05:57:12;12.70;78.70
72206;DHT22;60111;48.286;7.812;2023-05-15T05:59:45;12.60;78.60
72206;DHT22;60111;48.286;7.812;2023-05-15T06:02:18;12.60;79.30
72206;DHT22;60111;48.286;7.812;2023-05-15T06:04:51;12.50;79.60
72206;DHT22;60111;48.286;7.812;2023-05-15T06:07:23;12.60;79.70
72206;DHT22;60111;48.286;7.812;2023-05-15T06:09:56;12.60;79.40
72206;DHT22;60111;48.286;7.812;2023-05-15T06:12:28;12.70;79.20
72206;DHT22;60111;48.286;7.812;2023-05-15T06:15:01;12.80;79.30
72206;DHT22;60111;48.286;7.812;2023-05-15T06:17:34;12.90;78.90
72206;DHT22;60111;48.286;7.812;2023-05-15T06:20:09;12.90;78.50
72206;DHT22;60111;48.286;7.812;2023-05-15T06:22:42;13.00;79.00
72206;DHT22;60111;48.286;7.812;2023-05-15T06:25:15;13.20;77.50
72206;DHT22;60111;48.286;7.812;2023-05-15T06:27:47;13.30;77.50
72206;DHT22;60111;48.286;7.812;2023-05-15T06:30:20;13.40;76.20
72206;DHT22;60111;48.286;7.812;2023-05-15T06:32:53;13.60;74.80
72206;DHT22;60111;48.286;7.812;2023-05-15T06:35:26;13.60;74.50
72206;DHT22;60111;48.286;7.812;2023-05-15T06:37:58;13.80;74.30
72206;DHT22;60111;48.286;7.812;2023-05-15T06:40:31;13.80;74.90
72206;DHT22;60111;48.286;7.812;2023-05-15T06:43:03;13.90;74.00
72206;DHT22;60111;48.286;7.812;2023-05-15T06:45:36;13.90;74.20
72206;DHT22;60111;48.286;7.812;2023-05-15T06:48:09;14.10;74.20
72206;DHT22;60111;48.286;7.812;2023-05-15T06:50:41;14.20;73.70
72206;DHT22;60111;48.286;7.812;2023-05-15T06:53:14;14.50;73.40
72206;DHT22;60111;48.286;7.812;2023-05-15T06:55:48;14.90;72.50
72206;DHT22;60111;48.286;7.812;2023-05-15T06:58:20;15.40;70.70
72206;DHT22;60111;48.286;7.812;2023-05-15T07:00:53;15.80;68.80
72206;DHT22;60111;48.286;7.812;2023-05-15T07:03:26;16.20;67.00
72206;DHT22;60111;48.286;7.812;2023-05-15T07:05:58;16.40;66.60
72206;DHT22;60111;48.286;7.812;2023-05-15T07:08:31;16.60;65.70
72206;DHT22;60111;48.286;7.812;2023-05-15T07:11:03;16.80;65.40
72206;DHT22;60111;48.286;7.812;2023-05-15T07:13:36;17.00;64.70
72206;DHT22;60111;48.286;7.812;2023-05-15T07:16:09;17.00;63.80
72206;DHT22;60111;48.286;7.812;2023-05-15T07:18:42;16.90;64.10
72206;DHT22;60111;48.286;7.812;2023-05-15T07:21:14;16.90;63.70
72206;DHT22;60111;48.286;7.812;2023-05-15T07:23:47;16.70;65.40
72206;DHT22;60111;48.286;7.812;2023-05-15T07:26:19;16.60;65.60
72206;DHT22;60111;48.286;7.812;2023-05-15T07:28:52;16.60;64.40
72206;DHT22;60111;48.286;7.812;2023-05-15T07:31:25;16.50;65.50
72206;DHT22;60111;48.286;7.812;2023-05-15T07:33:57;16.60;65.10
72206;DHT22;60111;48.286;7.812;2023-05-15T07:36:30;16.50;65.30
72206;DHT22;60111;48.286;7.812;2023-05-15T07:39:03;16.30;66.00
72206;DHT22;60111;48.286;7.812;2023-05-15T07:41:36;16.30;65.30
72206;DHT22;60111;48.286;7.812;2023-05-15T07:44:09;16.20;66.40
72206;DHT22;60111;48.286;7.812;2023-05-15T07:46:42;16.50;66.00
72206;DHT22;60111;48.286;7.812;2023-05-15T07:49:15;16.70;66.00
72206;DHT22;60111;48.286;7.812;2023-05-15T07:51:48;16.90;64.30
72206;DHT22;60111;48.286;7.812;2023-05-15T07:54:21;17.10;63.90
72206;DHT22;60111;48.286;7.812;2023-05-15T07:56:53;17.30;64.10
72206;DHT22;60111;48.286;7.812;2023-05-15T07:59:26;17.30;62.70
72206;DHT22;60111;48.286;7.812;2023-05-15T08:01:59;17.40;62.50
72206;DHT22;60111;48.286;7.812;2023-05-15T08:04:31;17.30;62.90
72206;DHT22;60111;48.286;7.812;2023-05-15T08:07:05;17.40;63.00
72206;DHT22;60111;48.286;7.812;2023-05-15T08:09:37;17.60;62.00
72206;DHT22;60111;48.286;7.812;2023-05-15T08:12:20;17.60;62.40
72206;DHT22;60111;48.286;7.812;2023-05-15T08:14:54;17.80;62.00
72206;DHT22;60111;48.286;7.812;2023-05-15T08:17:27;18.40;61.40
72206;DHT22;60111;48.286;7.812;2023-05-15T08:19:59;18.80;59.20
72206;DHT22;60111;48.286;7.812;2023-05-15T08:22:32;19.00;58.50
72206;DHT22;60111;48.286;7.812;2023-05-15T08:25:05;19.10;57.90
72206;DHT22;60111;48.286;7.812;2023-05-15T08:27:39;18.90;58.60
72206;DHT22;60111;48.286;7.812;2023-05-15T08:30:12;19.10;58.40
72206;DHT22;60111;48.286;7.812;2023-05-15T08:32:45;19.10;58.00
72206;DHT22;60111;48.286;7.812;2023-05-15T08:35:19;19.30;57.40
72206;DHT22;60111;48.286;7.812;2023-05-15T08:37:51;19.20;57.20
72206;DHT22;60111;48.286;7.812;2023-05-15T08:40:25;19.00;58.70
72206;DHT22;60111;48.286;7.812;2023-05-15T08:43:05;19.10;58.00
72206;DHT22;60111;48.286;7.812;2023-05-15T08:45:34;18.90;58.10
72206;DHT22;60111;48.286;7.812;2023-05-15T08:48:17;19.00;58.00
72206;DHT22;60111;48.286;7.812;2023-05-15T08:50:53;18.90;58.90
72206;DHT22;60111;48.286;7.812;2023-05-15T08:53:28;18.90;58.00
72206;DHT22;60111;48.286;7.812;2023-05-15T08:56:01;18.80;58.10
72206;DHT22;60111;48.286;7.812;2023-05-15T08:58:34;18.80;57.80
72206;DHT22;60111;48.286;7.812;2023-05-15T09:01:07;18.90;58.80
72206;DHT22;60111;48.286;7.812;2023-05-15T09:03:40;19.20;58.80
72206;DHT22;60111;48.286;7.812;2023-05-15T09:06:13;19.20;56.90
72206;DHT22;60111;48.286;7.812;2023-05-15T09:08:46;19.10;57.10
72206;DHT22;60111;48.286;7.812;2023-05-15T09:11:20;19.20;57.00
72206;DHT22;60111;48.286;7.812;2023-05-15T09:13:58;19.40;57.50
72206;DHT22;60111;48.286;7.812;2023-05-15T09:16:31;19.80;56.20
72206;DHT22;60111;48.286;7.812;2023-05-15T09:19:05;20.10;55.60
72206;DHT22;60111;48.286;7.812;2023-05-15T09:21:37;20.00;55.00
72206;DHT22;60111;48.286;7.812;2023-05-15T09:24:24;19.80;55.10
72206;DHT22;60111;48.286;7.812;2023-05-15T09:27:06;19.80;55.70
72206;DHT22;60111;48.286;7.812;2023-05-15T09:29:40;19.80;56.10
72206;DHT22;60111;48.286;7.812;2023-05-15T09:32:13;20.00;54.80
72206;DHT22;60111;48.286;7.812;2023-05-15T09:34:46;20.30;53.30
72206;DHT22;60111;48.286;7.812;2023-05-15T09:37:30;20.10;53.20
72206;DHT22;60111;48.286;7.812;2023-05-15T09:40:07;20.00;53.10
72206;DHT22;60111;48.286;7.812;2023-05-15T09:42:41;20.30;52.80
72206;DHT22;60111;48.286;7.812;2023-05-15T09:45:18;20.40;52.30
72206;DHT22;60111;48.286;7.812;2023-05-15T09:47:51;20.60;52.10
72206;DHT22;60111;48.286;7.812;2023-05-15T09:50:31;20.60;52.10
72206;DHT22;60111;48.286;7.812;2023-05-15T09:52:59;20.80;49.60
72206;DHT22;60111;48.286;7.812;2023-05-15T09:55:35;20.70;50.30
72206;DHT22;60111;48.286;7.812;2023-05-15T09:58:12;20.80;50.40
72206;DHT22;60111;48.286;7.812;2023-05-15T10:00:46;20.70;49.90
72206;DHT22;60111;48.286;7.812;2023-05-15T10:03:18;20.90;49.60
72206;DHT22;60111;48.286;7.812;2023-05-15T10:05:59;20.90;49.30
72206;DHT22;60111;48.286;7.812;2023-05-15T10:08:33;20.80;49.00
72206;DHT22;60111;48.286;7.812;2023-05-15T10:11:07;20.50;48.20
72206;DHT22;60111;48.286;7.812;2023-05-15T10:13:40;20.10;51.00
72206;DHT22;60111;48.286;7.812;2023-05-15T10:16:13;20.00;51.40
72206;DHT22;60111;48.286;7.812;2023-05-15T10:18:47;20.20;50.50
72206;DHT22;60111;48.286;7.812;2023-05-15T10:21:20;20.20;51.80
72206;DHT22;60111;48.286;7.812;2023-05-15T10:23:54;20.20;52.70
72206;DHT22;60111;48.286;7.812;2023-05-15T10:26:41;20.20;52.40
72206;DHT22;60111;48.286;7.812;2023-05-15T10:29:17;20.40;51.80
72206;DHT22;60111;48.286;7.812;2023-05-15T10:31:51;20.50;51.60
72206;DHT22;60111;48.286;7.812;2023-05-15T10:34:25;20.50;50.40
72206;DHT22;60111;48.286;7.812;2023-05-15T10:36:59;20.70;51.80
72206;DHT22;60111;48.286;7.812;2023-05-15T10:39:32;20.80;50.90
72206;DHT22;60111;48.286;7.812;2023-05-15T10:42:07;20.50;51.70
72206;DHT22;60111;48.286;7.812;2023-05-15T10:44:40;20.50;52.30
72206;DHT22;60111;48.286;7.812;2023-05-15T10:47:12;20.80;50.80
72206;DHT22;60111;48.286;7.812;2023-05-15T10:49:45;20.80;52.40
72206;DHT22;60111;48.286;7.812;2023-05-15T10:52:19;20.80;52.50
72206;DHT22;60111;48.286;7.812;2023-05-15T10:54:55;20.90;51.50
72206;DHT22;60111;48.286;7.812;2023-05-15T10:57:30;21.10;51.40
72206;DHT22;60111;48.286;7.812;2023-05-15T11:00:03;21.20;51.20
72206;DHT22;60111;48.286;7.812;2023-05-15T11:02:38;21.40;50.20
72206;DHT22;60111;48.286;7.812;2023-05-15T11:05:11;21.30;50.80
72206;DHT22;60111;48.286;7.812;2023-05-15T11:10:37;21.30;50.60
72206;DHT22;60111;48.286;7.812;2023-05-15T11:13:10;21.50;50.00
72206;DHT22;60111;48.286;7.812;2023-05-15T11:15:44;21.40;49.50
72206;DHT22;60111;48.286;7.812;2023-05-15T11:18:17;21.10;48.70
72206;DHT22;60111;48.286;7.812;2023-05-15T11:23:26;20.80;48.10
72206;DHT22;60111;48.286;7.812;2023-05-15T11:25:59;20.60;49.10
72206;DHT22;60111;48.286;7.812;2023-05-15T11:28:39;20.80;46.60
72206;DHT22;60111;48.286;7.812;2023-05-15T11:31:09;20.90;47.40
72206;DHT22;60111;48.286;7.812;2023-05-15T11:33:41;21.30;47.90
72206;DHT22;60111;48.286;7.812;2023-05-15T11:36:14;21.60;46.60
72206;DHT22;60111;48.286;7.812;2023-05-15T11:38:49;22.00;45.30
72206;DHT22;60111;48.286;7.812;2023-05-15T11:41:22;22.20;44.60
72206;DHT22;60111;48.286;7.812;2023-05-15T11:43:58;22.30;44.30
72206;DHT22;60111;48.286;7.812;2023-05-15T11:46:31;22.00;45.40
72206;DHT22;60111;48.286;7.812;2023-05-15T11:49:04;22.00;46.30
72206;DHT22;60111;48.286;7.812;2023-05-15T11:51:37;22.00;45.90
72206;DHT22;60111;48.286;7.812;2023-05-15T11:54:12;22.10;46.20
72206;DHT22;60111;48.286;7.812;2023-05-15T11:56:44;22.10;47.10
72206;DHT22;60111;48.286;7.812;2023-05-15T11:59:17;22.00;47.60
72206;DHT22;60111;48.286;7.812;2023-05-15T12:01:51;21.90;47.00
72206;DHT22;60111;48.286;7.812;2023-05-15T12:04:24;21.80;47.70
72206;DHT22;60111;48.286;7.812;2023-05-15T12:06:56;21.80;47.10
72206;DHT22;60111;48.286;7.812;2023-05-15T12:09:29;21.80;47.00
72206;DHT22;60111;48.286;7.812;2023-05-15T12:12:01;22.10;45.20
72206;DHT22;60111;48.286;7.812;2023-05-15T12:14:35;22.30;45.20
72206;DHT22;60111;48.286;7.812;2023-05-15T12:17:09;22.30;44.50
72206;DHT22;60111;48.286;7.812;2023-05-15T12:19:42;22.40;44.70
72206;DHT22;60111;48.286;7.812;2023-05-15T12:22:15;22.10;46.30
72206;DHT22;60111;48.286;7.812;2023-05-15T12:24:49;21.80;45.20
72206;DHT22;60111;48.286;7.812;2023-05-15T12:27:22;21.60;45.30
72206;DHT22;60111;48.286;7.812;2023-05-15T12:29:55;21.40;46.20
72206;DHT22;60111;48.286;7.812;2023-05-15T12:32:34;21.50;45.90
72206;DHT22;60111;48.286;7.812;2023-05-15T12:35:03;21.60;45.80
72206;DHT22;60111;48.286;7.812;2023-05-15T12:37:36;21.70;46.50
72206;DHT22;60111;48.286;7.812;2023-05-15T12:40:09;21.80;45.10
72206;DHT22;60111;48.286;7.812;2023-05-15T12:42:43;21.80;44.90
72206;DHT22;60111;48.286;7.812;2023-05-15T12:45:18;21.80;46.80
72206;DHT22;60111;48.286;7.812;2023-05-15T12:47:50;22.00;44.90
72206;DHT22;60111;48.286;7.812;2023-05-15T12:50:23;22.20;44.70
72206;DHT22;60111;48.286;7.812;2023-05-15T12:52:59;22.50;44.60
72206;DHT22;60111;48.286;7.812;2023-05-15T12:55:34;22.70;43.60
72206;DHT22;60111;48.286;7.812;2023-05-15T12:58:09;22.80;44.00
72206;DHT22;60111;48.286;7.812;2023-05-15T13:00:43;22.80;43.30
72206;DHT22;60111;48.286;7.812;2023-05-15T13:03:20;22.80;42.30
72206;DHT22;60111;48.286;7.812;2023-05-15T13:05:53;22.60;42.60
72206;DHT22;60111;48.286;7.812;2023-05-15T13:08:26;22.60;43.20
72206;DHT22;60111;48.286;7.812;2023-05-15T13:10:59;22.60;42.50
72206;DHT22;60111;48.286;7.812;2023-05-15T13:13:43;22.60;41.80
72206;DHT22;60111;48.286;7.812;2023-05-15T13:16:24;22.40;42.00
72206;DHT22;60111;48.286;7.812;2023-05-15T13:18:59;22.00;42.10
72206;DHT22;60111;48.286;7.812;2023-05-15T13:21:31;21.50;43.10
72206;DHT22;60111;48.286;7.812;2023-05-15T13:24:04;21.10;44.00
72206;DHT22;60111;48.286;7.812;2023-05-15T13:26:37;20.60;46.00
72206;DHT22;60111;48.286;7.812;2023-05-15T13:29:10;20.20;47.70
72206;DHT22;60111;48.286;7.812;2023-05-15T13:31:43;20.10;48.10
72206;DHT22;60111;48.286;7.812;2023-05-15T13:34:15;20.00;48.60
72206;DHT22;60111;48.286;7.812;2023-05-15T13:36:48;20.10;48.70
72206;DHT22;60111;48.286;7.812;2023-05-15T13:39:20;20.10;48.50
72206;DHT22;60111;48.286;7.812;2023-05-15T13:41:53;20.20;48.50
72206;DHT22;60111;48.286;7.812;2023-05-15T13:44:26;20.30;47.80
72206;DHT22;60111;48.286;7.812;2023-05-15T13:46:58;20.10;49.30
72206;DHT22;60111;48.286;7.812;2023-05-15T13:49:32;19.70;52.40
72206;DHT22;60111;48.286;7.812;2023-05-15T13:52:05;19.20;57.30
72206;DHT22;60111;48.286;7.812;2023-05-15T13:54:38;18.70;58.90
72206;DHT22;60111;48.286;7.812;2023-05-15T13:57:10;18.00;60.40
72206;DHT22;60111;48.286;7.812;2023-05-15T13:59:43;17.60;64.90
72206;DHT22;60111;48.286;7.812;2023-05-15T14:02:16;17.20;66.00
72206;DHT22;60111;48.286;7.812;2023-05-15T14:04:49;17.00;67.30
72206;DHT22;60111;48.286;7.812;2023-05-15T14:07:22;16.60;67.60
72206;DHT22;60111;48.286;7.812;2023-05-15T14:09:55;16.50;68.60
72206;DHT22;60111;48.286;7.812;2023-05-15T14:12:27;16.40;68.80
72206;DHT22;60111;48.286;7.812;2023-05-15T14:15:00;16.30;70.40
72206;DHT22;60111;48.286;7.812;2023-05-15T14:17:33;16.20;71.60
72206;DHT22;60111;48.286;7.812;2023-05-15T14:20:06;16.10;70.90
72206;DHT22;60111;48.286;7.812;2023-05-15T14:22:41;16.10;72.00
72206;DHT22;60111;48.286;7.812;2023-05-15T14:25:13;16.10;71.80
72206;DHT22;60111;48.286;7.812;2023-05-15T14:27:46;16.20;71.90
72206;DHT22;60111;48.286;7.812;2023-05-15T14:30:20;16.20;72.30
72206;DHT22;60111;48.286;7.812;2023-05-15T14:32:53;16.20;72.10
72206;DHT22;60111;48.286;7.812;2023-05-15T14:35:26;16.20;71.00
72206;DHT22;60111;48.286;7.812;2023-05-15T14:37:58;16.10;71.20
72206;DHT22;60111;48.286;7.812;2023-05-15T14:40:31;16.00;70.30
72206;DHT22;60111;48.286;7.812;2023-05-15T14:43:03;15.90;70.10
72206;DHT22;60111;48.286;7.812;2023-05-15T14:45:36;15.80;70.60
72206;DHT22;60111;48.286;7.812;2023-05-15T14:48:09;15.80;70.00
72206;DHT22;60111;48.286;7.812;2023-05-15T14:50:42;15.80;68.40
72206;DHT22;60111;48.286;7.812;2023-05-15T14:53:15;15.80;69.40
72206;DHT22;60111;48.286;7.812;2023-05-15T14:55:47;15.70;69.80
72206;DHT22;60111;48.286;7.812;2023-05-15T14:58:20;15.60;70.50
72206;DHT22;60111;48.286;7.812;2023-05-15T15:00:52;15.60;71.00
72206;DHT22;60111;48.286;7.812;2023-05-15T15:03:25;15.60;71.20
72206;DHT22;60111;48.286;7.812;2023-05-15T15:05:58;15.50;72.40
72206;DHT22;60111;48.286;7.812;2023-05-15T15:08:30;15.50;71.90
72206;DHT22;60111;48.286;7.812;2023-05-15T15:11:03;15.50;70.00
72206;DHT22;60111;48.286;7.812;2023-05-15T15:13:36;15.50;70.90
72206;DHT22;60111;48.286;7.812;2023-05-15T15:16:09;15.50;71.00
72206;DHT22;60111;48.286;7.812;2023-05-15T15:18:41;15.50;71.40
72206;DHT22;60111;48.286;7.812;2023-05-15T15:21:14;15.50;70.20
72206;DHT22;60111;48.286;7.812;2023-05-15T15:23:47;15.50;69.30
72206;DHT22;60111;48.286;7.812;2023-05-15T15:26:19;15.50;70.00
72206;DHT22;60111;48.286;7.812;2023-05-15T15:28:52;15.50;69.80
72206;DHT22;60111;48.286;7.812;2023-05-15T15:31:29;15.60;69.80
72206;DHT22;60111;48.286;7.812;2023-05-15T15:34:01;15.60;69.70
72206;DHT22;60111;48.286;7.812;2023-05-15T15:36:34;15.60;70.60
72206;DHT22;60111;48.286;7.812;2023-05-15T15:39:08;15.80;72.40
72206;DHT22;60111;48.286;7.812;2023-05-15T15:41:42;15.90;72.60
72206;DHT22;60111;48.286;7.812;2023-05-15T15:44:14;16.00;71.90
72206;DHT22;60111;48.286;7.812;2023-05-15T15:46:47;16.10;72.50
72206;DHT22;60111;48.286;7.812;2023-05-15T15:49:19;16.10;73.00
72206;DHT22;60111;48.286;7.812;2023-05-15T15:51:52;16.20;73.70
72206;DHT22;60111;48.286;7.812;2023-05-15T15:54:25;16.20;73.70
72206;DHT22;60111;48.286;7.812;2023-05-15T15:56:57;16.20;73.00
72206;DHT22;60111;48.286;7.812;2023-05-15T15:59:30;16.30;72.00
72206;DHT22;60111;48.286;7.812;2023-05-15T16:02:04;16.30;72.30
72206;DHT22;60111;48.286;7.812;2023-05-15T16:04:38;16.40;72.70
72206;DHT22;60111;48.286;7.812;2023-05-15T16:07:11;16.40;72.70
72206;DHT22;60111;48.286;7.812;2023-05-15T16:09:43;16.50;71.50
72206;DHT22;60111;48.286;7.812;2023-05-15T16:12:16;16.50;71.60
72206;DHT22;60111;48.286;7.812;2023-05-15T16:14:49;16.50;71.20
72206;DHT22;60111;48.286;7.812;2023-05-15T16:17:21;16.50;72.00
72206;DHT22;60111;48.286;7.812;2023-05-15T16:19:54;16.60;70.50
72206;DHT22;60111;48.286;7.812;2023-05-15T16:22:26;16.70;69.90
72206;DHT22;60111;48.286;7.812;2023-05-15T16:24:59;16.80;69.00
72206;DHT22;60111;48.286;7.812;2023-05-15T16:27:31;16.90;68.90
72206;DHT22;60111;48.286;7.812;2023-05-15T16:30:04;16.90;68.90